createdAt,value
2019-01-30T00:00:24.466Z,-0.60
2019-01-30T00:03:13.034Z,-0.70
2019-01-30T00:06:02.076Z,-0.70
2019-01-30T00:08:51.373Z,-0.70
2019-01-30T00:11:40.612Z,-0.70
2019-01-30T00:14:29.853Z,-0.70
2019-01-30T00:17:18.642Z,-0.70
2019-01-30T00:20:11.666Z,-0.60
2019-01-30T00:23:00.717Z,-0.70
2019-01-30T00:25:49.491Z,-0.60
2019-01-30T00:28:38.585Z,-0.60
2019-01-30T00:31:28.111Z,-0.50
2019-01-30T00:34:17.628Z,-0.50
2019-01-30T00:37:07.066Z,-0.50
2019-01-30T00:39:56.053Z,-0.60
2019-01-30T00:42:45.137Z,-0.70
2019-01-30T00:45:34.590Z,-0.70
2019-01-30T00:48:23.776Z,-0.60
2019-01-30T00:51:12.997Z,-0.60
2019-01-30T00:54:02.625Z,-0.70
2019-01-30T00:56:51.915Z,-0.80
2019-01-30T00:59:41.268Z,-0.80
2019-01-30T01:02:29.881Z,-0.90
2019-01-30T01:05:18.851Z,-0.90
2019-01-30T01:08:07.990Z,-0.90
2019-01-30T01:10:57.531Z,-0.90
2019-01-30T01:13:46.592Z,-0.90
2019-01-30T01:16:35.789Z,-0.90
2019-01-30T01:19:25.537Z,-0.90
2019-01-30T01:22:14.697Z,-0.90
2019-01-30T01:25:05.404Z,-0.90
2019-01-30T01:27:54.773Z,-0.90
2019-01-30T01:30:44.250Z,-0.90
2019-01-30T01:33:33.121Z,-0.80
2019-01-30T01:36:22.482Z,-0.80
2019-01-30T01:39:11.449Z,-0.80
2019-01-30T01:42:00.272Z,-0.80
2019-01-30T01:44:49.021Z,-0.90
2019-01-30T01:47:38.107Z,-0.80
2019-01-30T01:50:28.834Z,-0.80
2019-01-30T01:53:17.734Z,-0.80
2019-01-30T01:56:07.375Z,-0.70
2019-01-30T01:58:56.661Z,-0.70
2019-01-30T02:01:46.007Z,-0.70
2019-01-30T02:04:35.233Z,-0.70
2019-01-30T02:07:24.555Z,-0.70
2019-01-30T02:10:19.488Z,-0.70
2019-01-30T02:13:08.418Z,-0.70
2019-01-30T02:15:57.589Z,-0.60
2019-01-30T02:18:46.735Z,-0.70
2019-01-30T02:21:36.424Z,-0.70
2019-01-30T02:24:25.809Z,-0.70
2019-01-30T02:27:15.179Z,-0.70
2019-01-30T02:30:07.126Z,-0.70
2019-01-30T02:32:55.871Z,-0.80
2019-01-30T02:35:44.548Z,-0.80
2019-01-30T02:38:33.831Z,-0.70
2019-01-30T02:41:23.104Z,-0.80
2019-01-30T02:44:12.228Z,-0.80
2019-01-30T02:47:01.408Z,-0.80
2019-01-30T02:49:50.712Z,-0.80
2019-01-30T02:52:39.609Z,-0.70
2019-01-30T02:55:28.583Z,-0.70
2019-01-30T02:58:17.189Z,-0.70
2019-01-30T03:01:06.370Z,-0.70
2019-01-30T03:03:55.792Z,-0.70
2019-01-30T03:06:44.929Z,-0.70
2019-01-30T03:09:33.719Z,-0.80
2019-01-30T03:12:23.035Z,-0.70
2019-01-30T03:15:17.791Z,-0.80
2019-01-30T03:18:07.004Z,-0.70
2019-01-30T03:20:56.200Z,-0.70
2019-01-30T03:23:45.347Z,-0.70
2019-01-30T03:26:34.540Z,-0.70
2019-01-30T03:29:23.825Z,-0.70
2019-01-30T03:32:13.079Z,-0.80
2019-01-30T03:35:01.727Z,-0.70
2019-01-30T03:37:50.798Z,-0.70
2019-01-30T03:40:40.386Z,-0.70
2019-01-30T03:43:29.424Z,-0.60
2019-01-30T03:46:18.486Z,-0.60
2019-01-30T03:49:07.850Z,-0.50
2019-01-30T03:51:57.245Z,-0.50
2019-01-30T03:54:46.322Z,-0.50
2019-01-30T03:57:35.676Z,-0.50
2019-01-30T04:00:27.393Z,-0.40
2019-01-30T04:03:16.073Z,-0.40
2019-01-30T04:06:05.225Z,-0.40
2019-01-30T04:08:54.796Z,-0.40
2019-01-30T04:11:43.809Z,-0.40
2019-01-30T04:14:33.042Z,-0.50
2019-01-30T04:17:21.547Z,-0.50
2019-01-30T04:20:15.319Z,-0.50
2019-01-30T04:23:04.634Z,-0.50
2019-01-30T04:25:53.529Z,-0.50
2019-01-30T04:28:42.875Z,-0.60
2019-01-30T04:31:38.333Z,-0.60
2019-01-30T04:34:22.943Z,-0.50
2019-01-30T04:37:12.097Z,-0.60
2019-01-30T04:40:01.695Z,-0.60
2019-01-30T04:42:50.868Z,-0.50
2019-01-30T04:45:39.823Z,-0.50
2019-01-30T04:48:29.221Z,-0.50
2019-01-30T04:51:18.356Z,-0.50
2019-01-30T04:54:07.453Z,-0.50
2019-01-30T04:56:56.703Z,-0.50
2019-01-30T04:59:45.137Z,-0.50
2019-01-30T05:02:34.611Z,-0.60
2019-01-30T05:05:24.094Z,-0.60
2019-01-30T05:08:13.777Z,-0.60
2019-01-30T05:11:02.928Z,-0.60
2019-01-30T05:13:52.033Z,-0.60
2019-01-30T05:16:41.165Z,-0.70
2019-01-30T05:19:30.726Z,-0.80
2019-01-30T05:22:20.215Z,-0.70
2019-01-30T05:25:11.080Z,-0.70
2019-01-30T05:28:00.080Z,-0.80
2019-01-30T05:30:49.245Z,-0.80
2019-01-30T05:33:38.576Z,-0.80
2019-01-30T05:36:27.381Z,-0.80
2019-01-30T05:39:16.433Z,-0.90
2019-01-30T05:42:05.929Z,-0.90
2019-01-30T05:44:54.463Z,-0.80
2019-01-30T05:47:43.436Z,-0.80
2019-01-30T05:50:32.491Z,-0.80
2019-01-30T05:53:22.379Z,-0.80
2019-01-30T05:56:11.241Z,-0.80
2019-01-30T05:59:00.615Z,-0.80
2019-01-30T06:01:49.629Z,-0.80
2019-01-30T06:04:39.251Z,-0.80
2019-01-30T06:07:28.521Z,-0.70
2019-01-30T06:10:18.119Z,-0.80
2019-01-30T06:13:06.957Z,-0.70
2019-01-30T06:15:55.915Z,-0.70
2019-01-30T06:18:44.981Z,-0.70
2019-01-30T06:21:34.098Z,-0.70
2019-01-30T06:24:22.701Z,-0.60
2019-01-30T06:27:12.034Z,-0.60
2019-01-30T06:30:01.554Z,-0.60
2019-01-30T06:32:51.095Z,-0.60
2019-01-30T06:35:40.608Z,-0.60
2019-01-30T06:38:30.290Z,-0.60
2019-01-30T06:41:19.853Z,-0.60
2019-01-30T06:44:09.844Z,-0.50
2019-01-30T06:46:58.977Z,-0.50
2019-01-30T06:49:48.087Z,-0.50
2019-01-30T06:52:36.864Z,-0.50
2019-01-30T06:55:26.408Z,-0.50
2019-01-30T06:58:15.752Z,-0.40
2019-01-30T07:01:05.567Z,-0.30
2019-01-30T07:03:54.732Z,-0.30
2019-01-30T07:06:43.853Z,-0.30
2019-01-30T07:09:33.371Z,-0.20
2019-01-30T07:12:22.138Z,-0.20
2019-01-30T07:15:11.599Z,-0.20
2019-01-30T07:18:00.559Z,-0.20
2019-01-30T07:20:49.933Z,-0.20
2019-01-30T07:23:38.588Z,-0.20
2019-01-30T07:26:27.872Z,-0.20
2019-01-30T07:29:16.316Z,-0.20
2019-01-30T07:32:05.534Z,-0.10
2019-01-30T07:34:54.637Z,-0.10
2019-01-30T07:37:43.912Z,0.00
2019-01-30T07:40:33.240Z,0.00
2019-01-30T07:43:23.119Z,0.10
2019-01-30T07:46:12.539Z,0.10
2019-01-30T07:49:01.390Z,0.10
2019-01-30T07:51:50.872Z,0.10
2019-01-30T07:54:40.093Z,0.10
2019-01-30T07:57:28.898Z,0.20
2019-01-30T08:00:25.125Z,0.20
2019-01-30T08:03:14.814Z,0.20
2019-01-30T08:06:03.654Z,0.30
2019-01-30T08:08:53.563Z,0.30
2019-01-30T08:11:42.923Z,0.30
2019-01-30T08:14:32.221Z,0.40
2019-01-30T08:17:21.873Z,0.40
2019-01-30T08:20:17.480Z,0.40
2019-01-30T08:23:07.470Z,0.40
2019-01-30T08:25:55.948Z,0.40
2019-01-30T08:28:45.649Z,0.40
2019-01-30T08:31:35.019Z,0.40
2019-01-30T08:34:24.665Z,0.40
2019-01-30T08:37:13.749Z,0.50
2019-01-30T08:40:03.103Z,0.50
2019-01-30T08:42:52.487Z,0.50
2019-01-30T08:45:42.256Z,0.50
2019-01-30T08:48:31.316Z,0.60
2019-01-30T08:51:20.027Z,0.60
2019-01-30T08:54:08.995Z,0.60
2019-01-30T08:56:57.809Z,0.70
2019-01-30T08:59:47.160Z,0.60
2019-01-30T09:02:36.213Z,0.60
2019-01-30T09:05:25.185Z,0.70
2019-01-30T09:08:14.037Z,0.60
2019-01-30T09:11:03.837Z,0.70
2019-01-30T09:13:52.970Z,0.70
2019-01-30T09:16:42.167Z,0.70
2019-01-30T09:19:31.475Z,0.80
2019-01-30T09:22:20.708Z,0.80
2019-01-30T09:25:14.131Z,0.90
2019-01-30T09:28:03.451Z,0.90
2019-01-30T09:30:52.529Z,0.90
2019-01-30T09:33:41.651Z,1.00
2019-01-30T09:36:30.632Z,1.10
2019-01-30T09:39:20.054Z,1.10
2019-01-30T09:42:09.085Z,1.20
2019-01-30T09:44:57.959Z,1.20
2019-01-30T09:47:47.136Z,1.30
2019-01-30T09:50:36.229Z,1.20
2019-01-30T09:53:25.532Z,1.30
2019-01-30T09:56:15.601Z,1.40
2019-01-30T09:59:05.272Z,1.40
2019-01-30T10:01:54.264Z,1.40
2019-01-30T10:04:43.351Z,1.40
2019-01-30T10:07:32.401Z,1.40
2019-01-30T10:10:28.617Z,1.40
2019-01-30T10:13:18.300Z,1.40
2019-01-30T10:16:06.419Z,1.50
2019-01-30T10:18:54.388Z,1.60
2019-01-30T10:21:42.200Z,1.60
2019-01-30T10:24:30.473Z,1.70
2019-01-30T10:27:18.451Z,1.70
2019-01-30T10:30:16.174Z,1.70
2019-01-30T10:33:05.317Z,1.70
2019-01-30T10:35:53.997Z,1.70
2019-01-30T10:38:42.043Z,1.70
2019-01-30T10:41:30.190Z,1.70
2019-01-30T10:44:18.329Z,1.80
2019-01-30T10:47:06.503Z,1.90
2019-01-30T10:49:54.559Z,1.90
2019-01-30T10:52:43.303Z,2.00
2019-01-30T10:55:33.760Z,2.00
2019-01-30T10:58:22.108Z,2.10
2019-01-30T11:01:10.223Z,2.10
2019-01-30T11:03:58.629Z,2.10
2019-01-30T11:06:46.673Z,2.10
2019-01-30T11:09:34.478Z,2.10
2019-01-30T11:12:22.859Z,2.10
2019-01-30T11:15:14.551Z,2.20
2019-01-30T11:18:02.366Z,2.20
2019-01-30T11:20:51.040Z,2.20
2019-01-30T11:23:39.084Z,2.20
2019-01-30T11:26:26.603Z,2.30
2019-01-30T11:29:14.658Z,2.30
2019-01-30T11:32:02.880Z,2.30
2019-01-30T11:34:51.246Z,2.30
2019-01-30T11:37:39.411Z,2.40
2019-01-30T11:40:28.457Z,2.40
2019-01-30T11:43:16.613Z,2.40
2019-01-30T11:46:04.715Z,2.40
2019-01-30T11:48:56.390Z,2.30
2019-01-30T11:51:43.790Z,2.40
2019-01-30T11:54:38.656Z,2.40
2019-01-30T11:57:22.002Z,2.50
2019-01-30T12:00:17.785Z,2.50
2019-01-30T12:03:06.001Z,2.60
2019-01-30T12:05:54.545Z,2.60
2019-01-30T12:08:43.159Z,2.60
2019-01-30T12:11:31.336Z,2.60
2019-01-30T12:14:19.302Z,2.60
2019-01-30T12:17:07.414Z,2.60
2019-01-30T12:19:55.328Z,2.50
2019-01-30T12:22:43.604Z,2.50
2019-01-30T12:25:31.594Z,2.50
2019-01-30T12:28:19.783Z,2.50
2019-01-30T12:31:09.464Z,2.50
2019-01-30T12:33:59.171Z,2.50
2019-01-30T12:36:47.387Z,2.50
2019-01-30T12:39:35.541Z,2.60
2019-01-30T12:42:24.392Z,2.60
2019-01-30T12:45:15.971Z,2.70
2019-01-30T12:48:05.099Z,2.70
2019-01-30T12:50:53.263Z,2.70
2019-01-30T12:53:41.753Z,2.70
2019-01-30T12:56:30.099Z,2.80
2019-01-30T12:59:18.370Z,2.90
2019-01-30T13:02:06.749Z,3.00
2019-01-30T13:04:55.267Z,3.00
2019-01-30T13:07:43.775Z,3.10
2019-01-30T13:10:32.171Z,3.10
2019-01-30T13:13:20.725Z,3.10
2019-01-30T13:16:08.863Z,3.10
2019-01-30T13:18:56.886Z,3.20
2019-01-30T13:21:45.046Z,3.20
2019-01-30T13:24:33.615Z,3.20
2019-01-30T13:27:21.949Z,3.20
2019-01-30T13:30:13.573Z,3.20
2019-01-30T13:33:02.798Z,3.20
2019-01-30T13:35:50.882Z,3.20
2019-01-30T13:38:38.809Z,3.10
2019-01-30T13:41:27.166Z,3.20
2019-01-30T13:44:15.062Z,3.20
2019-01-30T13:47:03.622Z,3.20
2019-01-30T13:49:51.818Z,3.10
2019-01-30T13:52:40.158Z,3.10
2019-01-30T13:55:28.762Z,3.10
2019-01-30T13:58:17.187Z,3.10
2019-01-30T14:01:06.010Z,3.00
2019-01-30T14:03:54.146Z,3.00
2019-01-30T14:06:42.402Z,3.00
2019-01-30T14:09:30.769Z,3.00
2019-01-30T14:12:19.260Z,3.00
2019-01-30T14:15:16.579Z,2.90
2019-01-30T14:18:04.734Z,3.00
2019-01-30T14:20:52.748Z,3.00
2019-01-30T14:23:41.322Z,3.00
2019-01-30T14:26:29.348Z,3.00
2019-01-30T14:29:17.716Z,3.10
2019-01-30T14:32:06.258Z,3.10
2019-01-30T14:34:54.373Z,3.10
2019-01-30T14:37:42.715Z,3.10
2019-01-30T14:40:30.766Z,3.10
2019-01-30T14:43:19.046Z,3.10
2019-01-30T14:46:07.139Z,3.00
2019-01-30T14:48:55.910Z,3.00
2019-01-30T14:51:44.091Z,3.00
2019-01-30T14:54:32.361Z,3.00
2019-01-30T14:57:20.620Z,2.90
2019-01-30T15:00:17.361Z,3.00
2019-01-30T15:03:05.705Z,3.00
2019-01-30T15:05:54.021Z,2.90
2019-01-30T15:08:42.416Z,2.90
2019-01-30T15:11:30.950Z,2.80
2019-01-30T15:14:19.127Z,2.80
2019-01-30T15:17:07.735Z,2.70
2019-01-30T15:19:56.158Z,2.70
2019-01-30T15:22:43.974Z,2.70
2019-01-30T15:25:32.713Z,2.60
2019-01-30T15:28:20.564Z,2.50
2019-01-30T15:31:08.709Z,2.50
2019-01-30T15:33:57.310Z,2.50
2019-01-30T15:36:45.838Z,2.40
2019-01-30T15:39:33.722Z,2.40
2019-01-30T15:42:22.316Z,2.30
2019-01-30T15:45:14.208Z,2.30
2019-01-30T15:48:02.885Z,2.20
2019-01-30T15:50:50.617Z,2.20
2019-01-30T15:53:38.866Z,2.20
2019-01-30T15:56:27.418Z,2.10
2019-01-30T15:59:15.946Z,2.10
2019-01-30T16:02:04.295Z,2.10
2019-01-30T16:04:52.072Z,2.10
2019-01-30T16:07:40.811Z,2.10
2019-01-30T16:10:29.271Z,2.00
2019-01-30T16:13:17.819Z,2.00
2019-01-30T16:16:06.494Z,1.90
2019-01-30T16:18:54.921Z,1.90
2019-01-30T16:21:43.058Z,2.00
2019-01-30T16:24:31.512Z,2.00
2019-01-30T16:27:19.560Z,2.00
2019-01-30T16:30:19.298Z,2.00
2019-01-30T16:33:07.926Z,2.00
2019-01-30T16:35:56.574Z,1.90
2019-01-30T16:38:44.966Z,1.90
2019-01-30T16:41:33.324Z,1.90
2019-01-30T16:44:21.903Z,1.90
2019-01-30T16:47:10.481Z,1.90
2019-01-30T16:49:59.016Z,1.90
2019-01-30T16:52:47.993Z,1.90
2019-01-30T16:55:37.927Z,1.90
2019-01-30T16:58:26.940Z,1.90
2019-01-30T17:01:15.088Z,1.90
2019-01-30T17:04:03.917Z,1.80
2019-01-30T17:06:51.731Z,1.80
2019-01-30T17:09:40.022Z,1.80
2019-01-30T17:12:28.473Z,1.80
2019-01-30T17:15:25.843Z,1.80
2019-01-30T17:18:14.181Z,1.80
2019-01-30T17:21:02.015Z,1.80
2019-01-30T17:23:50.705Z,1.80
2019-01-30T17:26:38.443Z,1.80
2019-01-30T17:29:27.066Z,1.80
2019-01-30T17:32:15.823Z,1.90
2019-01-30T17:35:06.259Z,1.90
2019-01-30T17:37:54.262Z,1.90
2019-01-30T17:40:42.719Z,2.00
2019-01-30T17:43:30.750Z,2.00
2019-01-30T17:46:19.151Z,2.00
2019-01-30T17:49:08.054Z,2.10
2019-01-30T17:51:56.252Z,2.10
2019-01-30T17:54:44.750Z,2.10
2019-01-30T17:57:32.698Z,2.10
2019-01-30T18:00:31.095Z,2.20
2019-01-30T18:03:19.114Z,2.10
2019-01-30T18:06:07.037Z,2.10
2019-01-30T18:08:55.312Z,2.10
2019-01-30T18:11:42.982Z,1.90
2019-01-30T18:14:30.772Z,1.80
2019-01-30T18:17:18.383Z,1.70
2019-01-30T18:20:19.059Z,1.70
2019-01-30T18:23:07.376Z,1.60
2019-01-30T18:25:55.091Z,1.50
2019-01-30T18:28:43.544Z,1.40
2019-01-30T18:31:31.946Z,1.30
2019-01-30T18:34:19.947Z,1.20
2019-01-30T18:37:08.217Z,1.20
2019-01-30T18:39:56.846Z,1.20
2019-01-30T18:42:45.683Z,1.20
2019-01-30T18:45:34.224Z,1.20
2019-01-30T18:48:22.006Z,1.10
2019-01-30T18:51:10.101Z,1.10
2019-01-30T18:53:58.585Z,1.10
2019-01-30T18:56:47.627Z,1.10
2019-01-30T18:59:36.306Z,1.10
2019-01-30T19:02:25.451Z,1.10
2019-01-30T19:05:16.280Z,1.00
2019-01-30T19:08:05.226Z,1.00
2019-01-30T19:10:54.410Z,0.90
2019-01-30T19:13:43.979Z,0.90
2019-01-30T19:16:33.048Z,0.80
2019-01-30T19:19:22.311Z,0.80
2019-01-30T19:22:11.127Z,0.80
2019-01-30T19:24:59.946Z,0.80
2019-01-30T19:27:49.087Z,0.80
2019-01-30T19:30:38.012Z,0.80
2019-01-30T19:33:27.376Z,0.80
2019-01-30T19:36:16.885Z,0.80
2019-01-30T19:39:08.880Z,0.90
2019-01-30T19:41:57.987Z,0.80
2019-01-30T19:44:47.382Z,0.80
2019-01-30T19:47:36.613Z,0.80
2019-01-30T19:50:33.185Z,0.80
2019-01-30T19:53:22.634Z,0.90
2019-01-30T19:56:12.142Z,0.90
2019-01-30T19:59:01.624Z,0.90
2019-01-30T20:01:50.885Z,0.90
2019-01-30T20:04:40.277Z,1.00
2019-01-30T20:07:29.032Z,1.00
2019-01-30T20:10:36.387Z,1.00
2019-01-30T20:13:25.889Z,1.10
2019-01-30T20:16:15.191Z,1.10
2019-01-30T20:19:04.095Z,1.10
2019-01-30T20:21:53.261Z,1.10
2019-01-30T20:24:42.258Z,1.20
2019-01-30T20:27:31.406Z,1.20
2019-01-30T20:30:23.528Z,1.20
2019-01-30T20:33:12.194Z,1.20
2019-01-30T20:36:01.731Z,1.20
2019-01-30T20:38:51.336Z,1.30
2019-01-30T20:41:40.537Z,1.30
2019-01-30T20:44:29.628Z,1.30
2019-01-30T20:47:19.097Z,1.30
2019-01-30T20:50:15.956Z,1.30
2019-01-30T20:53:05.656Z,1.20
2019-01-30T20:55:55.057Z,1.30
2019-01-30T20:58:44.115Z,1.20
2019-01-30T21:01:32.981Z,1.30
2019-01-30T21:04:22.342Z,1.30
2019-01-30T21:07:11.828Z,1.30
2019-01-30T21:10:01.104Z,1.30
2019-01-30T21:12:49.914Z,1.40
2019-01-30T21:15:39.333Z,1.30
2019-01-30T21:18:28.496Z,1.40
2019-01-30T21:21:17.356Z,1.40
2019-01-30T21:24:06.411Z,1.40
2019-01-30T21:26:55.790Z,1.40
2019-01-30T21:29:44.859Z,1.50
2019-01-30T21:32:34.326Z,1.50
2019-01-30T21:35:23.695Z,1.50
2019-01-30T21:38:12.567Z,1.40
2019-01-30T21:41:01.129Z,1.50
2019-01-30T21:43:50.514Z,1.40
2019-01-30T21:46:39.252Z,1.40
2019-01-30T21:49:28.698Z,1.30
2019-01-30T21:52:17.376Z,1.30
2019-01-30T21:55:16.693Z,1.30
2019-01-30T21:58:05.838Z,1.20
2019-01-30T22:00:55.291Z,1.20
2019-01-30T22:03:44.546Z,1.20
2019-01-30T22:06:33.654Z,1.30
2019-01-30T22:09:23.027Z,1.30
2019-01-30T22:12:12.082Z,1.30
2019-01-30T22:15:01.564Z,1.30
2019-01-30T22:17:50.324Z,1.30
2019-01-30T22:20:39.655Z,1.40
2019-01-30T22:23:28.652Z,1.40
2019-01-30T22:26:18.139Z,1.40
2019-01-30T22:29:07.473Z,1.40
2019-01-30T22:31:56.354Z,1.40
2019-01-30T22:34:44.668Z,1.40
2019-01-30T22:37:33.939Z,1.40
2019-01-30T22:40:21.712Z,1.50
2019-01-30T22:43:09.863Z,1.50
2019-01-30T22:45:58.633Z,1.40
2019-01-30T22:48:47.209Z,1.50
2019-01-30T22:51:35.445Z,1.40
2019-01-30T22:54:23.830Z,1.40
2019-01-30T22:57:11.887Z,1.50
2019-01-30T22:59:59.521Z,1.50
2019-01-30T23:02:47.680Z,1.40
2019-01-30T23:06:03.508Z,1.50
2019-01-30T23:09:04.660Z,1.50
2019-01-30T23:12:02.084Z,1.50
2019-01-30T23:14:56.403Z,1.50
2019-01-30T23:18:10.215Z,1.50
2019-01-30T23:21:13.860Z,1.50
2019-01-30T23:24:19.978Z,1.50
2019-01-30T23:27:11.691Z,1.50
2019-01-30T23:30:21.668Z,1.50
2019-01-30T23:33:46.134Z,1.50
2019-01-30T23:36:40.654Z,1.50
2019-01-30T23:39:55.882Z,1.50
2019-01-30T23:43:10.595Z,1.50
2019-01-30T23:46:04.781Z,1.50
2019-01-30T23:49:04.700Z,1.50
2019-01-30T23:52:01.854Z,1.60
2019-01-30T23:55:02.376Z,1.60
2019-01-30T23:57:57.286Z,1.60
